createdAt,value
2023-11-25T00:01:13.565Z,1.90
2023-11-25T00:03:42.201Z,1.90
2023-11-25T00:06:10.648Z,2.00
2023-11-25T00:08:40.305Z,2.00
2023-11-25T00:11:17.769Z,1.90
2023-11-25T00:13:50.526Z,2.10
2023-11-25T00:16:18.864Z,2.00
2023-11-25T00:18:47.167Z,2.20
2023-11-25T00:21:15.489Z,2.00
2023-11-25T00:23:45.124Z,2.00
2023-11-25T00:26:13.599Z,2.00
2023-11-25T00:28:52.697Z,2.00
2023-11-25T00:31:21.423Z,2.00
2023-11-25T00:33:49.731Z,2.00
2023-11-25T00:36:18.069Z,2.00
2023-11-25T00:38:48.012Z,2.00
2023-11-25T00:41:16.258Z,1.90
2023-11-25T00:43:44.617Z,2.00
2023-11-25T00:46:12.990Z,1.90
2023-11-25T00:48:43.519Z,2.00
2023-11-25T00:51:11.822Z,1.90
2023-11-25T00:53:40.391Z,1.90
2023-11-25T00:56:10.328Z,1.90
2023-11-25T00:58:38.775Z,2.00
2023-11-25T01:01:07.213Z,2.10
2023-11-25T01:03:35.597Z,2.00
2023-11-25T01:06:09.223Z,2.00
2023-11-25T01:08:37.949Z,2.00
2023-11-25T01:11:06.952Z,2.00
2023-11-25T01:13:36.708Z,2.00
2023-11-25T01:16:06.201Z,2.00
2023-11-25T01:18:35.404Z,2.00
2023-11-25T01:21:04.167Z,2.00
2023-11-25T01:23:32.445Z,2.00
2023-11-25T01:26:00.737Z,2.00
2023-11-25T01:28:31.012Z,1.90
2023-11-25T01:31:01.184Z,2.00
2023-11-25T01:33:29.539Z,2.00
2023-11-25T01:35:57.872Z,2.00
2023-11-25T01:38:26.042Z,2.00
2023-11-25T01:40:57.055Z,2.00
2023-11-25T01:43:26.631Z,1.90
2023-11-25T01:45:57.855Z,1.90
2023-11-25T01:48:29.702Z,1.90
2023-11-25T01:50:58.551Z,1.90
2023-11-25T01:53:29.601Z,1.90
2023-11-25T01:55:59.707Z,1.90
2023-11-25T01:58:29.099Z,1.90
2023-11-25T02:00:57.977Z,1.80
2023-11-25T02:03:27.767Z,1.80
2023-11-25T02:05:56.081Z,1.90
2023-11-25T02:08:24.346Z,1.90
2023-11-25T02:10:53.929Z,1.80
2023-11-25T02:13:24.857Z,1.80
2023-11-25T02:15:54.282Z,1.80
2023-11-25T02:18:23.883Z,1.80
2023-11-25T02:20:54.374Z,1.80
2023-11-25T02:23:25.036Z,1.90
2023-11-25T02:25:54.404Z,1.80
2023-11-25T02:28:22.911Z,1.90
2023-11-25T02:30:51.465Z,1.90
2023-11-25T02:33:19.728Z,2.00
2023-11-25T02:35:48.863Z,1.90
2023-11-25T02:38:17.661Z,1.90
2023-11-25T02:40:50.315Z,1.90
2023-11-25T02:43:19.313Z,1.80
2023-11-25T02:45:49.492Z,2.00
2023-11-25T02:48:18.275Z,1.80
2023-11-25T02:50:47.453Z,1.80
2023-11-25T02:53:15.854Z,1.80
2023-11-25T02:55:44.903Z,1.80
2023-11-25T02:58:14.870Z,1.70
2023-11-25T03:00:44.783Z,1.70
2023-11-25T03:03:18.183Z,1.80
2023-11-25T03:05:49.182Z,1.70
2023-11-25T03:08:18.658Z,1.70
2023-11-25T03:10:48.994Z,1.70
2023-11-25T03:13:19.025Z,1.70
2023-11-25T03:15:47.466Z,1.70
2023-11-25T03:18:15.781Z,1.60
2023-11-25T03:20:44.016Z,1.70
2023-11-25T03:23:12.356Z,1.60
2023-11-25T03:25:42.070Z,1.70
2023-11-25T03:28:12.190Z,1.70
2023-11-25T03:30:43.000Z,1.70
2023-11-25T03:33:11.804Z,1.60
2023-11-25T03:35:40.131Z,1.60
2023-11-25T03:38:08.467Z,1.70
2023-11-25T03:40:37.032Z,1.70
2023-11-25T03:43:05.374Z,1.70
2023-11-25T03:45:33.654Z,1.70
2023-11-25T03:48:04.020Z,1.60
2023-11-25T03:50:32.415Z,1.60
2023-11-25T03:53:00.783Z,1.60
2023-11-25T03:55:29.918Z,1.50
2023-11-25T03:57:58.134Z,1.60
2023-11-25T04:00:27.101Z,1.70
2023-11-25T04:02:55.699Z,1.50
2023-11-25T04:05:25.589Z,1.50
2023-11-25T04:07:54.343Z,1.50
2023-11-25T04:10:22.848Z,1.50
2023-11-25T04:12:53.678Z,1.50
2023-11-25T04:15:22.879Z,1.50
2023-11-25T04:17:52.759Z,1.50
2023-11-25T04:20:29.599Z,1.60
2023-11-25T04:23:07.279Z,1.30
2023-11-25T04:25:37.369Z,1.50
2023-11-25T04:28:07.895Z,1.30
2023-11-25T04:30:37.149Z,1.20
2023-11-25T04:33:05.464Z,1.20
2023-11-25T04:35:33.735Z,1.20
2023-11-25T04:38:03.763Z,1.20
2023-11-25T04:40:32.067Z,1.20
2023-11-25T04:43:00.887Z,1.20
2023-11-25T04:45:29.106Z,1.20
2023-11-25T04:47:57.424Z,1.10
2023-11-25T04:50:27.980Z,1.10
2023-11-25T04:52:56.709Z,1.10
2023-11-25T04:55:28.796Z,1.20
2023-11-25T04:57:57.612Z,1.10
2023-11-25T05:00:25.920Z,1.20
2023-11-25T05:02:54.517Z,1.10
2023-11-25T05:05:23.093Z,1.10
2023-11-25T05:07:51.340Z,1.10
2023-11-25T05:10:21.609Z,1.10
2023-11-25T05:12:52.341Z,1.20
2023-11-25T05:15:23.719Z,1.10
2023-11-25T05:17:52.231Z,1.10
2023-11-25T05:20:20.778Z,1.10
2023-11-25T05:22:49.153Z,1.10
2023-11-25T05:25:17.989Z,1.10
2023-11-25T05:27:46.252Z,1.10
2023-11-25T05:30:17.173Z,1.10
2023-11-25T05:32:46.139Z,1.10
2023-11-25T05:35:15.644Z,1.10
2023-11-25T05:37:45.586Z,1.00
2023-11-25T05:40:16.583Z,1.10
2023-11-25T05:42:50.036Z,1.10
2023-11-25T05:45:21.900Z,1.10
2023-11-25T05:47:51.527Z,1.10
2023-11-25T05:50:22.767Z,1.10
2023-11-25T05:52:51.547Z,1.10
2023-11-25T05:55:21.994Z,1.10
2023-11-25T05:57:52.495Z,1.00
2023-11-25T06:00:24.416Z,1.10
2023-11-25T06:02:54.515Z,1.10
2023-11-25T06:05:23.095Z,1.00
2023-11-25T06:07:51.668Z,1.00
2023-11-25T06:10:20.707Z,1.10
2023-11-25T06:12:49.044Z,1.10
2023-11-25T06:15:17.585Z,1.10
2023-11-25T06:17:48.300Z,1.10
2023-11-25T06:20:16.578Z,1.10
2023-11-25T06:22:44.825Z,1.10
2023-11-25T06:25:13.192Z,1.20
2023-11-25T06:27:43.237Z,1.20
2023-11-25T06:30:13.753Z,1.20
2023-11-25T06:32:42.084Z,1.20
2023-11-25T06:35:13.344Z,1.20
2023-11-25T06:37:42.476Z,1.20
2023-11-25T06:40:14.826Z,1.20
2023-11-25T06:42:43.885Z,1.20
2023-11-25T06:45:14.121Z,1.20
2023-11-25T06:47:43.289Z,1.20
2023-11-25T06:50:13.856Z,1.20
2023-11-25T06:52:42.416Z,1.10
2023-11-25T06:55:11.876Z,1.00
2023-11-25T06:57:42.292Z,0.90
2023-11-25T07:00:12.717Z,0.90
2023-11-25T07:02:42.227Z,0.90
2023-11-25T07:05:14.888Z,0.90
2023-11-25T07:07:43.470Z,0.90
2023-11-25T07:10:15.458Z,0.80
2023-11-25T07:12:44.420Z,0.90
2023-11-25T07:15:13.438Z,0.80
2023-11-25T07:17:42.342Z,0.90
2023-11-25T07:20:17.005Z,0.90
2023-11-25T07:22:45.320Z,0.80
2023-11-25T07:25:14.320Z,0.70
2023-11-25T07:27:43.213Z,0.80
2023-11-25T07:30:12.358Z,0.80
2023-11-25T07:32:41.569Z,0.80
2023-11-25T07:35:11.748Z,0.80
2023-11-25T07:37:41.582Z,0.80
2023-11-25T07:40:16.127Z,0.80
2023-11-25T07:42:50.109Z,0.90
2023-11-25T07:45:18.957Z,0.90
2023-11-25T07:47:48.058Z,0.90
2023-11-25T07:50:17.551Z,0.90
2023-11-25T07:52:47.413Z,0.90
2023-11-25T07:55:15.980Z,1.00
2023-11-25T07:57:44.621Z,1.00
2023-11-25T08:00:17.015Z,1.10
2023-11-25T08:02:46.846Z,1.10
2023-11-25T08:05:23.827Z,1.10
2023-11-25T08:07:55.376Z,1.20
2023-11-25T08:10:32.379Z,1.20
2023-11-25T08:13:01.055Z,1.20
2023-11-25T08:15:29.548Z,1.30
2023-11-25T08:17:58.373Z,1.20
2023-11-25T08:20:26.781Z,1.40
2023-11-25T08:22:56.488Z,1.40
2023-11-25T08:25:25.003Z,1.50
2023-11-25T08:27:53.519Z,1.40
2023-11-25T08:30:22.431Z,1.30
2023-11-25T08:32:50.818Z,1.30
2023-11-25T08:35:19.314Z,1.30
2023-11-25T08:37:49.376Z,1.30
2023-11-25T08:40:22.893Z,1.30
2023-11-25T08:42:51.758Z,1.40
2023-11-25T08:45:20.802Z,1.40
2023-11-25T08:47:50.453Z,1.50
2023-11-25T08:50:20.227Z,1.50
2023-11-25T08:52:50.349Z,1.60
2023-11-25T08:55:21.516Z,1.50
2023-11-25T08:57:52.696Z,1.50
2023-11-25T09:00:21.836Z,1.60
2023-11-25T09:02:52.664Z,1.50
2023-11-25T09:05:24.010Z,1.50
2023-11-25T09:07:53.219Z,1.60
2023-11-25T09:10:24.237Z,1.60
2023-11-25T09:12:53.893Z,1.50
2023-11-25T09:15:23.714Z,1.50
2023-11-25T09:17:52.642Z,1.50
2023-11-25T09:20:22.336Z,1.50
2023-11-25T09:22:50.842Z,1.50
2023-11-25T09:25:19.435Z,1.40
2023-11-25T09:27:51.478Z,1.30
2023-11-25T09:30:19.950Z,1.30
2023-11-25T09:32:48.200Z,1.30
2023-11-25T09:35:17.238Z,1.30
2023-11-25T09:37:46.215Z,1.30
2023-11-25T09:40:16.822Z,1.30
2023-11-25T09:42:49.111Z,1.20
2023-11-25T09:45:17.947Z,1.20
2023-11-25T09:47:46.876Z,1.10
2023-11-25T09:50:15.705Z,1.10
2023-11-25T09:52:51.650Z,1.10
2023-11-25T09:55:23.346Z,1.00
2023-11-25T09:57:58.383Z,1.00
2023-11-25T10:00:28.679Z,1.00
2023-11-25T10:02:59.759Z,1.00
2023-11-25T10:05:30.291Z,0.90
2023-11-25T10:07:59.790Z,0.80
2023-11-25T10:10:30.274Z,0.80
2023-11-25T10:13:01.627Z,1.00
2023-11-25T10:15:29.904Z,0.80
2023-11-25T10:17:58.406Z,0.70
2023-11-25T10:20:27.199Z,0.70
2023-11-25T10:22:58.049Z,0.70
2023-11-25T10:25:29.332Z,0.70
2023-11-25T10:27:59.228Z,0.60
2023-11-25T10:30:29.886Z,0.60
2023-11-25T10:33:02.760Z,0.60
2023-11-25T10:35:31.222Z,0.70
2023-11-25T10:37:59.705Z,0.70
2023-11-25T10:40:28.786Z,0.80
2023-11-25T10:42:57.800Z,0.70
2023-11-25T10:45:29.064Z,0.70
2023-11-25T10:47:59.653Z,0.60
2023-11-25T10:50:28.395Z,0.60
2023-11-25T10:52:59.662Z,0.70
2023-11-25T10:55:30.048Z,0.60
2023-11-25T10:58:01.676Z,0.70
2023-11-25T11:00:32.787Z,0.60
2023-11-25T11:03:06.897Z,0.60
2023-11-25T11:05:44.849Z,0.60
2023-11-25T11:08:20.256Z,0.70
2023-11-25T11:10:56.042Z,0.70
2023-11-25T11:13:28.339Z,0.60
2023-11-25T11:16:01.671Z,0.60
2023-11-25T11:18:37.150Z,0.70
2023-11-25T11:21:10.260Z,0.70
2023-11-25T11:23:39.438Z,0.70
2023-11-25T11:26:20.168Z,0.70
2023-11-25T11:28:53.845Z,0.70
2023-11-25T11:32:02.409Z,0.70
2023-11-25T11:34:32.110Z,0.70
2023-11-25T11:37:02.057Z,0.80
2023-11-25T11:39:40.017Z,0.80
2023-11-25T11:42:35.381Z,0.90
2023-11-25T11:45:17.054Z,0.90
2023-11-25T11:47:48.819Z,1.00
2023-11-25T11:50:21.834Z,0.90
2023-11-25T11:53:14.145Z,0.90
2023-11-25T11:55:43.910Z,1.00
2023-11-25T11:58:12.511Z,0.90
2023-11-25T12:00:51.048Z,1.00
2023-11-25T12:03:20.968Z,0.90
2023-11-25T12:05:49.422Z,0.90
2023-11-25T12:08:17.843Z,0.90
2023-11-25T12:10:46.392Z,0.90
2023-11-25T12:13:14.763Z,0.90
2023-11-25T12:15:43.023Z,0.90
2023-11-25T12:18:13.051Z,1.00
2023-11-25T12:20:42.754Z,1.00
2023-11-25T12:23:11.024Z,1.00
2023-11-25T12:25:39.361Z,1.00
2023-11-25T12:28:09.399Z,1.00
2023-11-25T12:30:39.386Z,1.00
2023-11-25T12:33:08.570Z,1.00
2023-11-25T12:35:37.351Z,1.00
2023-11-25T12:38:14.739Z,1.10
2023-11-25T12:40:46.552Z,1.00
2023-11-25T12:43:15.851Z,1.10
2023-11-25T12:45:46.766Z,1.10
2023-11-25T12:48:20.644Z,1.20
2023-11-25T12:51:05.207Z,0.90
2023-11-25T12:53:35.878Z,1.00
2023-11-25T12:56:04.705Z,1.00
2023-11-25T12:58:33.338Z,1.00
2023-11-25T13:01:01.909Z,1.00
2023-11-25T13:03:32.827Z,1.00
2023-11-25T13:06:02.095Z,0.90
2023-11-25T13:08:34.196Z,0.90
2023-11-25T13:11:05.497Z,0.90
2023-11-25T13:13:34.671Z,0.90
2023-11-25T13:16:05.521Z,0.90
2023-11-25T13:18:34.606Z,0.90
2023-11-25T13:21:07.925Z,0.90
2023-11-25T13:23:36.461Z,1.00
2023-11-25T13:26:07.077Z,0.90
2023-11-25T13:28:35.636Z,0.90
2023-11-25T13:31:03.909Z,0.90
2023-11-25T13:33:32.263Z,0.90
2023-11-25T13:36:00.656Z,0.80
2023-11-25T13:38:29.410Z,0.90
2023-11-25T13:40:58.013Z,0.90
2023-11-25T13:43:27.608Z,0.80
2023-11-25T13:45:56.008Z,0.90
2023-11-25T13:48:24.319Z,0.90
2023-11-25T13:50:52.692Z,0.90
2023-11-25T13:53:20.977Z,0.90
2023-11-25T13:55:50.239Z,0.90
2023-11-25T13:58:18.582Z,0.90
2023-11-25T14:00:48.328Z,0.90
2023-11-25T14:03:17.434Z,0.90
2023-11-25T14:05:47.471Z,0.90
2023-11-25T14:08:19.749Z,0.80
2023-11-25T14:10:48.480Z,0.90
2023-11-25T14:13:17.563Z,0.90
2023-11-25T14:15:47.190Z,0.90
2023-11-25T14:18:15.597Z,0.80
2023-11-25T14:20:43.901Z,1.00
2023-11-25T14:23:12.276Z,0.90
2023-11-25T14:25:40.848Z,0.90
2023-11-25T14:28:09.942Z,0.90
2023-11-25T14:30:38.279Z,0.90
2023-11-25T14:33:07.961Z,0.90
2023-11-25T14:35:37.433Z,0.90
2023-11-25T14:38:07.278Z,0.80
2023-11-25T14:40:40.091Z,0.90
2023-11-25T14:43:09.263Z,0.90
2023-11-25T14:45:37.766Z,0.90
2023-11-25T14:48:08.859Z,0.90
2023-11-25T14:50:42.310Z,0.90
2023-11-25T14:53:13.379Z,0.90
2023-11-25T14:55:43.944Z,0.90
2023-11-25T14:58:12.843Z,1.00
2023-11-25T15:00:42.751Z,1.00
2023-11-25T15:03:13.636Z,0.90
2023-11-25T15:05:42.350Z,1.00
2023-11-25T15:08:10.692Z,0.90
2023-11-25T15:10:41.873Z,1.00
2023-11-25T15:13:10.943Z,1.00
2023-11-25T15:15:39.315Z,0.90
2023-11-25T15:18:08.821Z,0.90
2023-11-25T15:20:39.179Z,1.00
2023-11-25T15:23:07.674Z,1.00
2023-11-25T15:25:36.783Z,1.00
2023-11-25T15:28:07.073Z,0.90
2023-11-25T15:30:36.160Z,0.90
2023-11-25T15:33:05.025Z,0.90
2023-11-25T15:35:33.580Z,1.00
2023-11-25T15:38:03.886Z,1.00
2023-11-25T15:40:32.492Z,1.00
2023-11-25T15:43:00.683Z,0.90
2023-11-25T15:45:28.971Z,0.90
2023-11-25T15:47:57.368Z,0.90
2023-11-25T15:50:25.679Z,1.00
2023-11-25T15:52:55.486Z,0.90
2023-11-25T15:55:25.139Z,0.90
2023-11-25T15:57:54.515Z,0.90
2023-11-25T16:00:24.216Z,0.90
2023-11-25T16:02:53.339Z,0.90
2023-11-25T16:05:23.283Z,0.90
2023-11-25T16:07:52.522Z,0.90
2023-11-25T16:10:20.805Z,0.90
2023-11-25T16:12:50.555Z,0.90
2023-11-25T16:15:20.379Z,0.90
2023-11-25T16:17:49.310Z,0.90
2023-11-25T16:20:19.205Z,0.90
2023-11-25T16:22:47.534Z,1.00
2023-11-25T16:25:15.832Z,0.90
2023-11-25T16:27:44.359Z,1.00
2023-11-25T16:30:16.442Z,0.90
2023-11-25T16:32:45.439Z,0.90
2023-11-25T16:35:16.865Z,0.90
2023-11-25T16:37:45.605Z,0.90
2023-11-25T16:40:15.095Z,0.90
2023-11-25T16:42:43.340Z,0.90
2023-11-25T16:45:13.461Z,0.90
2023-11-25T16:47:42.005Z,0.90
2023-11-25T16:50:10.827Z,0.90
2023-11-25T16:52:39.129Z,0.90
2023-11-25T16:55:09.037Z,0.90
2023-11-25T16:57:37.883Z,0.90
2023-11-25T17:00:08.265Z,0.90
2023-11-25T17:02:38.056Z,0.90
2023-11-25T17:05:09.313Z,0.90
2023-11-25T17:07:38.236Z,0.90
2023-11-25T17:10:07.911Z,1.00
2023-11-25T17:12:36.263Z,0.90
2023-11-25T17:15:04.889Z,0.90
2023-11-25T17:17:33.668Z,1.00
2023-11-25T17:20:07.378Z,1.00
2023-11-25T17:22:35.805Z,1.00
2023-11-25T17:25:04.091Z,1.00
2023-11-25T17:27:32.509Z,1.00
2023-11-25T17:30:00.769Z,1.00
2023-11-25T17:32:29.024Z,0.90
2023-11-25T17:34:58.170Z,0.90
2023-11-25T17:37:28.263Z,0.90
2023-11-25T17:39:56.498Z,0.80
2023-11-25T17:42:25.092Z,0.90
2023-11-25T17:44:53.356Z,0.90
2023-11-25T17:47:22.951Z,0.90
2023-11-25T17:49:51.363Z,0.90
2023-11-25T17:52:19.662Z,0.90
2023-11-25T17:54:49.621Z,0.90
2023-11-25T17:57:17.811Z,0.90
2023-11-25T17:59:46.176Z,0.90
2023-11-25T18:02:14.480Z,1.00
2023-11-25T18:04:42.910Z,1.00
2023-11-25T18:07:11.734Z,1.00
2023-11-25T18:09:40.167Z,0.90
2023-11-25T18:12:10.531Z,0.90
2023-11-25T18:14:39.432Z,0.90
2023-11-25T18:17:07.833Z,0.90
2023-11-25T18:19:36.285Z,1.00
2023-11-25T18:22:04.628Z,1.00
2023-11-25T18:24:32.815Z,1.10
2023-11-25T18:27:01.151Z,1.10
2023-11-25T18:29:31.014Z,1.00
2023-11-25T18:31:59.357Z,1.00
2023-11-25T18:34:28.577Z,1.00
2023-11-25T18:36:57.468Z,1.00
2023-11-25T18:39:25.965Z,1.00
2023-11-25T18:41:54.208Z,0.90
2023-11-25T18:44:22.567Z,1.00
2023-11-25T18:46:52.386Z,1.00
2023-11-25T18:49:20.720Z,0.90
2023-11-25T18:51:49.011Z,1.00
2023-11-25T18:54:17.298Z,1.00
2023-11-25T18:56:45.617Z,1.00
2023-11-25T18:59:16.377Z,1.00
2023-11-25T19:01:44.889Z,1.10
2023-11-25T19:04:14.577Z,1.00
2023-11-25T19:06:45.368Z,1.00
2023-11-25T19:09:14.357Z,1.00
2023-11-25T19:11:43.736Z,1.00
2023-11-25T19:14:14.068Z,0.90
2023-11-25T19:16:42.633Z,1.00
2023-11-25T19:19:12.166Z,1.00
2023-11-25T19:21:41.916Z,1.00
2023-11-25T19:24:10.346Z,0.90
2023-11-25T19:26:41.479Z,0.90
2023-11-25T19:29:10.420Z,0.90
2023-11-25T19:31:38.723Z,0.90
2023-11-25T19:34:07.521Z,0.90
2023-11-25T19:36:35.929Z,0.90
2023-11-25T19:39:06.959Z,0.90
2023-11-25T19:41:35.312Z,0.90
2023-11-25T19:44:03.606Z,0.90
2023-11-25T19:46:32.016Z,0.90
2023-11-25T19:49:00.252Z,0.90
2023-11-25T19:51:28.460Z,0.90
2023-11-25T19:53:56.866Z,0.90
2023-11-25T19:56:26.506Z,0.80
2023-11-25T19:58:54.796Z,0.80
2023-11-25T20:01:23.052Z,0.70
2023-11-25T20:03:51.449Z,0.70
2023-11-25T20:06:19.781Z,0.70
2023-11-25T20:08:48.079Z,0.70
2023-11-25T20:11:16.578Z,0.60
2023-11-25T20:13:46.282Z,0.60
2023-11-25T20:16:14.662Z,0.60
2023-11-25T20:18:43.085Z,0.60
2023-11-25T20:21:11.321Z,0.60
2023-11-25T20:23:42.158Z,0.60
2023-11-25T20:26:11.120Z,0.50
2023-11-25T20:28:39.435Z,0.60
2023-11-25T20:31:09.890Z,0.60
2023-11-25T20:33:38.342Z,0.60
2023-11-25T20:36:09.527Z,0.60
2023-11-25T20:38:37.796Z,0.50
2023-11-25T20:41:06.435Z,0.50
2023-11-25T20:43:34.728Z,0.50
2023-11-25T20:46:03.154Z,0.60
2023-11-25T20:48:37.283Z,0.60
2023-11-25T20:51:08.089Z,0.50
2023-11-25T20:53:36.464Z,0.50
2023-11-25T20:56:05.522Z,0.50
2023-11-25T20:58:34.884Z,0.50
2023-11-25T21:01:04.543Z,0.50
2023-11-25T21:03:33.130Z,0.50
2023-11-25T21:06:02.954Z,0.60
2023-11-25T21:08:31.283Z,0.50
2023-11-25T21:10:59.562Z,0.50
2023-11-25T21:13:27.895Z,0.50
2023-11-25T21:15:56.103Z,0.40
2023-11-25T21:18:24.526Z,0.50
2023-11-25T21:20:53.337Z,0.50
2023-11-25T21:23:22.946Z,0.50
2023-11-25T21:25:51.267Z,0.50
2023-11-25T21:28:19.829Z,0.50
2023-11-25T21:30:49.232Z,0.50
2023-11-25T21:33:17.612Z,0.50
2023-11-25T21:35:48.213Z,0.50
2023-11-25T21:38:16.500Z,0.50
2023-11-25T21:40:46.436Z,0.50
2023-11-25T21:43:14.810Z,0.50
2023-11-25T21:45:43.086Z,0.60
2023-11-25T21:48:11.382Z,0.60
2023-11-25T21:50:39.705Z,0.60
2023-11-25T21:53:08.112Z,0.50
2023-11-25T21:55:36.436Z,0.60
2023-11-25T21:58:06.484Z,0.60
2023-11-25T22:00:35.008Z,0.60
2023-11-25T22:03:03.989Z,0.60
2023-11-25T22:05:32.450Z,0.60
2023-11-25T22:08:01.548Z,0.60
2023-11-25T22:10:31.736Z,0.80
2023-11-25T22:13:01.142Z,0.60
2023-11-25T22:15:30.828Z,0.60
2023-11-25T22:17:59.203Z,0.60
2023-11-25T22:20:27.609Z,0.60
2023-11-25T22:22:57.300Z,0.70
2023-11-25T22:25:35.570Z,0.60
2023-11-25T22:28:04.653Z,0.60
2023-11-25T22:30:34.301Z,0.60
2023-11-25T22:33:02.818Z,0.50
2023-11-25T22:35:31.105Z,0.50
2023-11-25T22:37:59.445Z,0.50
2023-11-25T22:40:27.685Z,0.50
2023-11-25T22:42:56.249Z,0.50
2023-11-25T22:45:24.556Z,0.40
2023-11-25T22:47:54.408Z,0.40
2023-11-25T22:50:22.781Z,0.30
2023-11-25T22:52:51.562Z,0.40
2023-11-25T22:55:19.805Z,0.30
2023-11-25T22:57:49.614Z,0.40
2023-11-25T23:00:29.449Z,0.30
2023-11-25T23:02:59.812Z,0.20
2023-11-25T23:05:28.421Z,0.20
2023-11-25T23:07:57.338Z,0.30
2023-11-25T23:10:25.804Z,0.20
2023-11-25T23:12:54.025Z,0.30
2023-11-25T23:15:22.645Z,0.20
2023-11-25T23:17:51.070Z,0.20
2023-11-25T23:20:20.773Z,0.20
2023-11-25T23:22:49.119Z,0.10
2023-11-25T23:25:17.567Z,0.20
2023-11-25T23:27:45.927Z,0.10
2023-11-25T23:30:14.629Z,0.00
2023-11-25T23:32:43.563Z,0.00
2023-11-25T23:35:12.279Z,-0.10
2023-11-25T23:37:42.013Z,0.00
2023-11-25T23:40:11.152Z,-0.10
2023-11-25T23:42:40.041Z,-0.10
2023-11-25T23:45:08.934Z,-0.10
2023-11-25T23:47:39.960Z,-0.10
2023-11-25T23:50:09.183Z,-0.20
2023-11-25T23:52:39.372Z,-0.20
2023-11-25T23:55:10.647Z,-0.20
2023-11-25T23:57:39.292Z,-0.30
